Time;durP1;ratioP1;P1;durP2;ratioP2;P2;SDS_P1;SDS_P2;PMS_P1;PMS_P2;Temp;Humidity;BMP_temperature;BMP_pressure;BME280_temperature;BME280_humidity;BME280_pressure;Samples;Min_cycle;Max_cycle;Signal;HPM_P1;HPM_P2
2022/08/08 00:02:28;;;;;;;5.45;3.58;;;15.50;99.40;;;;;;4984883;28;20038;-52
2022/08/08 00:04:56;;;;;;;6.38;3.83;;;15.50;99.10;;;;;;4991051;28;20393;-53
2022/08/08 00:07:51;;;;;;;6.10;3.45;;;15.50;98.80;;;;;;4989980;28;20022;-54
2022/08/08 00:10:34;;;;;;;6.05;3.55;;;15.40;99.20;;;;;;4987548;28;20113;-52
2022/08/08 00:13:25;;;;;;;7.10;3.90;;;15.40;99.00;;;;;;4992864;28;20025;-46
2022/08/08 00:15:58;;;;;;;6.25;3.90;;;15.40;99.30;;;;;;4991552;28;20046;-50
2022/08/08 00:18:48;;;;;;;6.38;3.83;;;15.30;99.20;;;;;;4987086;28;20128;-50
2022/08/08 00:21:21;;;;;;;5.72;3.38;;;15.30;99.20;;;;;;4991662;28;20061;-45
2022/08/08 00:23:55;;;;;;;6.00;3.78;;;15.20;99.20;;;;;;4991774;28;20113;-44
2022/08/08 00:26:37;;;;;;;6.85;4.10;;;15.30;99.60;;;;;;4974872;28;20030;-47
2022/08/08 00:29:41;;;;;;;5.43;3.78;;;15.20;99.30;;;;;;4991905;28;20030;-50
2022/08/08 00:32:32;;;;;;;7.40;3.90;;;15.10;99.30;;;;;;4932129;29;20605;-45
2022/08/08 00:35:25;;;;;;;6.03;3.90;;;15.10;99.50;;;;;;4991060;28;20050;-47
2022/08/08 00:38:09;;;;;;;6.18;3.50;;;15.10;99.40;;;;;;4991568;28;20635;-49
2022/08/08 00:40:58;;;;;;;5.03;3.53;;;15.00;99.50;;;;;;4990793;28;20035;-46
2022/08/08 00:43:56;;;;;;;6.43;3.93;;;15.00;99.40;;;;;;4979388;28;20038;-44
2022/08/08 00:46:28;;;;;;;6.90;3.97;;;14.90;99.70;;;;;;4935334;28;20046;-54
2022/08/08 00:49:19;;;;;;;5.28;3.80;;;14.90;99.70;;;;;;4987163;28;20030;-46
2022/08/08 00:52:15;;;;;;;6.78;3.67;;;14.60;99.50;;;;;;4991421;28;20053;-44
2022/08/08 00:55:00;;;;;;;6.53;4.20;;;14.80;99.90;;;;;;4992778;28;20109;-46
2022/08/08 00:57:55;;;;;;;6.28;3.50;;;14.80;99.90;;;;;;4992700;28;20481;-44
2022/08/08 01:00:24;;;;;;;5.35;3.60;;;14.80;99.90;;;;;;4992525;28;20045;-44
2022/08/08 01:03:09;;;;;;;6.15;3.78;;;14.70;99.90;;;;;;4992222;28;20488;-50
2022/08/08 01:05:50;;;;;;;6.20;3.70;;;14.70;99.90;;;;;;4991882;28;20131;-45
2022/08/08 01:08:57;;;;;;;6.07;4.00;;;14.70;99.90;;;;;;4980124;28;20066;-45
2022/08/08 01:11:46;;;;;;;7.25;3.92;;;14.60;99.90;;;;;;4912962;29;20526;-50
2022/08/08 01:14:30;;;;;;;5.68;3.80;;;14.60;99.90;;;;;;4989091;28;20641;-49
2022/08/08 01:17:33;;;;;;;6.57;3.70;;;14.60;99.90;;;;;;4992141;28;20465;-49
2022/08/08 01:20:29;;;;;;;6.53;3.60;;;14.60;99.90;;;;;;4992139;28;20040;-59
2022/08/08 01:23:04;;;;;;;6.05;3.90;;;14.60;99.90;;;;;;4992258;28;20058;-44
2022/08/08 01:26:00;;;;;;;5.65;3.67;;;14.50;99.90;;;;;;4992111;28;20485;-48
2022/08/08 01:28:35;;;;;;;5.47;3.40;;;14.50;99.90;;;;;;4992345;28;20037;-45
2022/08/08 01:31:44;;;;;;;6.72;3.78;;;14.50;99.90;;;;;;4991951;28;20504;-48
2022/08/08 01:34:59;;;;;;;8.88;4.10;;;14.40;99.90;;;;;;4946198;28;20050;-47
2022/08/08 01:38:00;;;;;;;7.53;3.85;;;14.40;99.90;;;;;;4991926;28;20038;-48
2022/08/08 01:40:45;;;;;;;10.25;3.95;;;14.40;99.90;;;;;;4987288;28;20042;-45
2022/08/08 01:43:38;;;;;;;6.35;3.78;;;14.40;99.90;;;;;;4992181;28;20034;-50
2022/08/08 01:46:25;;;;;;;7.30;3.65;;;14.40;99.90;;;;;;4991708;28;20026;-45
2022/08/08 01:49:18;;;;;;;6.47;3.72;;;14.30;99.90;;;;;;4992006;28;20040;-50
2022/08/08 01:51:50;;;;;;;6.57;4.15;;;14.30;99.90;;;;;;4991682;28;20022;-44
2022/08/08 01:54:42;;;;;;;6.10;4.10;;;14.30;99.90;;;;;;4991720;28;20034;-48
2022/08/08 01:57:32;;;;;;;6.20;3.75;;;14.30;99.90;;;;;;4982602;28;20066;-47
2022/08/08 02:00:13;;;;;;;7.72;3.83;;;14.20;99.90;;;;;;4991616;28;20394;-44
2022/08/08 02:03:16;;;;;;;6.45;3.65;;;14.10;99.90;;;;;;4991567;28;20458;-44
2022/08/08 02:05:50;;;;;;;7.35;4.20;;;14.10;99.90;;;;;;4991421;28;20157;-52
2022/08/08 02:08:48;;;;;;;5.93;3.63;;;14.10;99.90;;;;;;4979229;28;20486;-44
2022/08/08 02:11:29;;;;;;;6.55;4.05;;;14.10;99.90;;;;;;4991166;28;20448;-48
2022/08/08 02:14:14;;;;;;;5.43;3.75;;;14.00;99.90;;;;;;4991373;28;20117;-44
2022/08/08 02:17:14;;;;;;;7.28;3.88;;;14.00;99.90;;;;;;4987931;28;20041;-50
2022/08/08 02:20:10;;;;;;;6.05;3.70;;;13.90;99.90;;;;;;4991386;28;20022;-45
2022/08/08 02:22:46;;;;;;;5.28;3.67;;;13.80;99.90;;;;;;4974066;28;20030;-48
2022/08/08 02:25:18;;;;;;;6.75;3.78;;;13.80;99.90;;;;;;4991580;28;20366;-49
2022/08/08 02:28:04;;;;;;;6.53;3.90;;;13.80;99.90;;;;;;4991327;28;20023;-44
2022/08/08 02:30:38;;;;;;;7.45;3.85;;;13.70;99.90;;;;;;4991364;28;20507;-44
2022/08/08 02:33:23;;;;;;;6.07;4.10;;;13.70;99.90;;;;;;4991332;28;20057;-44
2022/08/08 02:36:07;;;;;;;6.15;3.88;;;13.60;99.90;;;;;;4991075;28;20393;-47
2022/08/08 02:39:02;;;;;;;6.50;4.15;;;13.60;99.90;;;;;;4991466;28;20061;-45
2022/08/08 02:41:45;;;;;;;6.45;3.80;;;13.60;99.90;;;;;;4968367;28;20109;-44
2022/08/08 02:44:29;;;;;;;5.50;3.63;;;13.50;99.90;;;;;;4991236;28;20022;-44
2022/08/08 02:47:21;;;;;;;6.07;3.60;;;13.50;99.90;;;;;;4991301;28;20022;-44
2022/08/08 02:49:46;;;;;;;5.28;3.63;;;13.50;99.90;;;;;;4991399;28;20493;-44
2022/08/08 02:52:27;;;;;;;6.65;3.75;;;13.40;99.90;;;;;;4991248;28;20031;-45
2022/08/08 02:55:21;;;;;;;5.95;3.88;;;13.30;99.90;;;;;;4991376;28;20101;-45
2022/08/08 02:58:11;;;;;;;7.05;3.88;;;13.30;99.90;;;;;;4990860;28;20033;-47
2022/08/08 03:00:56;;;;;;;6.28;3.60;;;13.20;99.90;;;;;;4990434;28;20030;-52
2022/08/08 03:04:03;;;;;;;6.63;3.80;;;13.20;99.90;;;;;;4991215;28;20070;-44
2022/08/08 03:07:04;;;;;;;6.63;3.92;;;13.20;99.90;;;;;;4991145;28;20030;-45
2022/08/08 03:09:54;;;;;;;6.00;4.03;;;13.20;99.90;;;;;;4990812;28;20019;-47
2022/08/08 03:12:25;;;;;;;5.28;3.63;;;13.10;99.90;;;;;;4991265;28;20096;-48
2022/08/08 03:15:23;;;;;;;5.80;3.58;;;13.10;99.90;;;;;;4990956;28;20478;-44
2022/08/08 03:18:03;;;;;;;5.68;3.85;;;13.10;99.90;;;;;;4990721;28;20030;-49
2022/08/08 03:20:52;;;;;;;6.43;3.78;;;13.10;99.90;;;;;;4989974;28;20023;-47
2022/08/08 03:23:21;;;;;;;6.70;4.43;;;13.00;99.90;;;;;;4990872;28;20043;-44
2022/08/08 03:25:48;;;;;;;7.10;3.72;;;13.00;99.90;;;;;;4991106;28;20030;-44
2022/08/08 03:28:37;;;;;;;6.07;3.67;;;13.00;99.90;;;;;;4991020;28;20038;-48
2022/08/08 03:33:47;;;;;;;6.97;3.63;;;12.90;99.90;;;;;;4992511;28;20469;-47
2022/08/08 03:36:14;;;;;;;5.60;3.60;;;12.80;99.90;;;;;;4994428;28;20493;-46
2022/08/08 03:38:39;;;;;;;6.97;3.42;;;12.80;99.90;;;;;;4994283;28;20490;-45
2022/08/08 03:41:05;;;;;;;6.10;3.75;;;12.80;99.90;;;;;;4994359;28;20054;-45
2022/08/08 03:43:31;;;;;;;6.30;4.00;;;12.80;99.90;;;;;;4994271;28;20026;-46
2022/08/08 03:45:57;;;;;;;6.30;3.45;;;12.80;99.90;;;;;;4994153;28;20073;-48
2022/08/08 03:48:22;;;;;;;7.35;4.07;;;12.90;99.90;;;;;;4994064;28;20034;-44
2022/08/08 03:50:49;;;;;;;7.50;3.85;;;12.80;99.90;;;;;;4994084;28;20077;-46
2022/08/08 03:53:16;;;;;;;6.22;3.90;;;12.80;99.90;;;;;;4994074;28;20420;-50
2022/08/08 03:55:44;;;;;;;6.07;4.15;;;12.80;99.90;;;;;;4994125;28;20033;-46
2022/08/08 03:58:17;;;;;;;5.30;3.83;;;12.80;99.90;;;;;;4976339;28;20029;-47
2022/08/08 04:00:50;;;;;;;5.40;3.83;;;12.80;99.90;;;;;;4993856;28;20019;-50
2022/08/08 04:03:16;;;;;;;8.80;3.97;;;12.80;99.90;;;;;;4993753;28;20030;-49
2022/08/08 04:05:41;;;;;;;9.88;4.07;;;12.80;99.90;;;;;;4993574;28;20019;-49
2022/08/08 04:08:21;;;;;;;7.32;4.55;;;12.90;99.90;;;;;;4993802;28;20023;-47
2022/08/08 04:10:49;;;;;;;7.10;4.18;;;12.90;99.90;;;;;;4993527;28;20034;-47
2022/08/08 04:13:16;;;;;;;6.10;3.80;;;12.80;99.90;;;;;;4993809;28;20058;-50
2022/08/08 04:15:43;;;;;;;7.80;4.15;;;12.80;99.90;;;;;;4993509;28;20022;-46
2022/08/08 04:18:08;;;;;;;8.00;4.60;;;12.80;99.90;;;;;;4993569;28;20101;-51
2022/08/08 04:20:34;;;;;;;9.52;4.30;;;12.80;99.90;;;;;;4993565;28;20181;-50
2022/08/08 04:23:00;;;;;;;7.88;4.10;;;12.90;99.90;;;;;;4993229;28;20022;-45
2022/08/08 04:25:26;;;;;;;7.30;4.40;;;12.80;99.90;;;;;;4993421;28;20030;-44
2022/08/08 04:27:51;;;;;;;6.93;3.97;;;12.90;99.90;;;;;;4992863;28;20019;-44
2022/08/08 04:30:17;;;;;;;5.18;3.47;;;12.90;99.90;;;;;;4992424;28;20047;-46
2022/08/08 04:32:43;;;;;;;6.20;3.90;;;12.90;99.90;;;;;;4993129;28;20026;-47
2022/08/08 04:35:09;;;;;;;7.63;4.13;;;12.80;99.90;;;;;;4975954;28;20051;-48
2022/08/08 04:37:34;;;;;;;6.75;4.35;;;12.80;99.90;;;;;;4993050;28;20026;-44
2022/08/08 04:40:01;;;;;;;8.57;4.63;;;12.80;99.90;;;;;;4992086;28;20029;-48
2022/08/08 04:42:27;;;;;;;6.38;4.25;;;12.80;99.90;;;;;;4993193;28;20053;-48
2022/08/08 04:44:56;;;;;;;7.00;4.05;;;12.80;99.90;;;;;;4992994;28;20501;-48
2022/08/08 04:47:21;;;;;;;6.28;4.18;;;12.80;99.90;;;;;;4992926;28;20121;-50
2022/08/08 04:49:47;;;;;;;7.38;4.45;;;12.90;99.90;;;;;;4992661;28;20110;-44
2022/08/08 04:52:13;;;;;;;6.85;4.10;;;12.90;99.90;;;;;;4993127;28;20088;-45
2022/08/08 04:54:38;;;;;;;6.55;4.10;;;12.90;99.90;;;;;;4992802;28;20505;-48
2022/08/08 04:57:04;;;;;;;11.10;4.32;;;12.90;99.90;;;;;;4992819;28;20122;-45
2022/08/08 04:59:30;;;;;;;5.47;3.85;;;12.90;99.90;;;;;;4992370;28;20504;-44
2022/08/08 05:01:55;;;;;;;6.38;4.47;;;12.90;99.90;;;;;;4992180;28;20157;-50
2022/08/08 05:04:21;;;;;;;9.25;4.00;;;12.90;99.90;;;;;;4992554;28;20157;-47
2022/08/08 05:06:47;;;;;;;6.80;4.32;;;13.00;99.90;;;;;;4992542;28;20412;-46
2022/08/08 05:09:13;;;;;;;8.05;4.30;;;13.00;99.90;;;;;;4992662;28;20030;-48
2022/08/08 05:11:39;;;;;;;8.00;3.97;;;13.00;99.90;;;;;;4992578;28;20038;-51
2022/08/08 05:14:05;;;;;;;7.13;4.13;;;13.10;99.90;;;;;;4992623;28;20019;-47
2022/08/08 05:16:31;;;;;;;8.30;3.92;;;13.60;99.90;;;;;;4992554;28;20022;-47
2022/08/08 05:18:57;;;;;;;5.97;4.03;;;13.20;99.90;;;;;;4992350;28;20046;-52
2022/08/08 05:21:22;;;;;;;9.05;4.00;;;13.20;99.90;;;;;;4992704;28;20419;-44
2022/08/08 05:23:48;;;;;;;7.68;4.32;;;13.30;99.90;;;;;;4992366;28;20370;-45
2022/08/08 05:26:14;;;;;;;6.10;3.95;;;13.30;99.90;;;;;;4992614;28;20034;-53
2022/08/08 05:28:40;;;;;;;6.68;3.97;;;13.30;99.90;;;;;;4971734;28;20418;-48
2022/08/08 05:31:06;;;;;;;6.55;4.00;;;13.30;99.90;;;;;;4992235;28;20786;-49
2022/08/08 05:33:31;;;;;;;5.97;4.05;;;13.40;99.90;;;;;;4992099;28;20050;-46
2022/08/08 05:36:00;;;;;;;5.60;3.78;;;13.40;99.90;;;;;;4992140;28;21114;-53
2022/08/08 05:38:28;;;;;;;6.03;3.50;;;13.50;99.90;;;;;;4992216;28;20023;-54
2022/08/08 05:40:57;;;;;;;6.65;4.15;;;13.60;99.90;;;;;;4992124;28;20096;-48
2022/08/08 05:43:30;;;;;;;6.03;3.72;;;13.60;99.90;;;;;;4991769;28;20080;-46
2022/08/08 05:46:01;;;;;;;5.53;3.85;;;13.70;99.90;;;;;;4991948;28;20104;-53
2022/08/08 05:48:27;;;;;;;6.93;3.97;;;13.90;99.90;;;;;;4992025;28;20034;-48
2022/08/08 05:50:53;;;;;;;5.82;3.72;;;13.90;99.90;;;;;;4991689;28;20092;-48
2022/08/08 05:53:26;;;;;;;6.28;4.05;;;13.90;99.90;;;;;;4991830;28;20098;-53
2022/08/08 05:55:57;;;;;;;6.53;4.00;;;14.00;99.90;;;;;;4991919;28;20407;-50
2022/08/08 05:58:30;;;;;;;6.63;4.10;;;14.10;99.90;;;;;;4991437;28;20018;-50
2022/08/08 06:01:00;;;;;;;6.47;3.88;;;14.30;99.90;;;;;;4991882;28;20367;-49
2022/08/08 06:03:27;;;;;;;6.28;3.67;;;15.40;99.90;;;;;;4991667;28;20040;-48
2022/08/08 06:05:55;;;;;;;5.78;3.35;;;15.50;99.90;;;;;;4991721;28;20031;-45
2022/08/08 06:08:26;;;;;;;6.00;3.08;;;16.90;98.20;;;;;;4991579;28;20581;-45
2022/08/08 06:10:55;;;;;;;4.72;2.90;;;18.20;94.80;;;;;;4991531;28;20034;-50
2022/08/08 06:13:21;;;;;;;6.20;2.70;;;19.40;92.90;;;;;;4991453;28;20105;-45
2022/08/08 06:15:48;;;;;;;4.20;2.67;;;20.30;91.40;;;;;;4991670;28;20019;-50
2022/08/08 06:18:16;;;;;;;4.70;3.20;;;20.80;90.40;;;;;;4991720;28;20023;-47
2022/08/08 06:20:43;;;;;;;5.00;3.17;;;21.20;88.20;;;;;;4991480;28;20105;-45
2022/08/08 06:23:09;;;;;;;5.18;2.78;;;22.10;86.50;;;;;;4991399;28;20031;-46
2022/08/08 06:25:36;;;;;;;6.45;2.90;;;23.10;83.10;;;;;;4991357;28;20473;-45
2022/08/08 06:28:11;;;;;;;9.18;2.95;;;24.10;80.10;;;;;;4991041;28;20057;-46
2022/08/08 06:30:39;;;;;;;4.05;2.33;;;25.00;76.30;;;;;;4990976;28;20046;-46
2022/08/08 06:33:09;;;;;;;3.47;2.65;;;25.90;72.00;;;;;;4990923;28;20500;-47
2022/08/08 06:35:38;;;;;;;4.82;2.90;;;26.60;69.60;;;;;;4991129;28;20034;-44
2022/08/08 06:38:05;;;;;;;5.50;3.10;;;26.50;67.20;;;;;;4991500;28;20096;-46
2022/08/08 06:40:32;;;;;;;4.88;3.10;;;26.20;66.50;;;;;;4991227;28;20107;-44
2022/08/08 06:43:09;;;;;;;5.28;3.20;;;26.10;66.40;;;;;;4991222;28;20037;-45
2022/08/08 06:45:37;;;;;;;3.45;2.40;;;26.20;67.50;;;;;;4984876;28;20023;-45
2022/08/08 06:48:04;;;;;;;5.00;3.20;;;26.70;66.30;;;;;;4987846;28;20034;-44
2022/08/08 06:50:31;;;;;;;5.15;2.97;;;27.20;63.40;;;;;;4989255;28;20045;-48
2022/08/08 06:53:00;;;;;;;10.02;3.08;;;27.60;62.50;;;;;;4989974;28;20393;-54
2022/08/08 06:55:26;;;;;;;6.43;2.47;;;28.00;60.10;;;;;;4990100;28;20409;-46
2022/08/08 06:57:52;;;;;;;5.65;2.35;;;28.50;59.00;;;;;;4977386;28;20030;-49
2022/08/08 07:00:17;;;;;;;6.13;2.60;;;28.80;58.00;;;;;;4990908;28;20033;-47
2022/08/08 07:02:52;;;;;;;4.00;2.47;;;29.10;57.20;;;;;;4982328;28;20030;-52
2022/08/08 07:05:22;;;;;;;4.95;2.40;;;29.50;54.60;;;;;;4993201;28;20026;-55
2022/08/08 07:07:51;;;;;;;4.57;2.17;;;29.80;55.10;;;;;;4994139;28;20033;-47
2022/08/08 07:10:22;;;;;;;5.38;2.70;;;30.30;54.20;;;;;;4994188;28;20109;-53
2022/08/08 07:12:51;;;;;;;4.28;2.10;;;30.60;53.60;;;;;;4993539;28;20015;-50
2022/08/08 07:15:20;;;;;;;5.00;2.47;;;31.20;51.60;;;;;;4994030;28;20041;-48
2022/08/08 07:17:49;;;;;;;4.15;2.28;;;31.40;49.30;;;;;;4994303;28;20081;-51
2022/08/08 07:20:19;;;;;;;3.45;2.28;;;31.60;49.10;;;;;;4993691;28;20666;-49
2022/08/08 07:23:02;;;;;;;4.95;2.50;;;31.80;48.60;;;;;;4982801;28;20284;-49
2022/08/08 07:25:33;;;;;;;4.80;2.60;;;32.10;47.70;;;;;;4982488;28;20125;-52
2022/08/08 07:28:09;;;;;;;4.70;2.45;;;31.80;46.40;;;;;;4977965;28;20499;-47
2022/08/08 07:30:36;;;;;;;5.07;2.03;;;31.60;48.00;;;;;;4985011;28;20883;-45
2022/08/08 07:33:03;;;;;;;6.45;2.78;;;31.20;49.10;;;;;;4992449;28;20022;-51
2022/08/08 07:35:28;;;;;;;5.03;2.70;;;31.60;48.40;;;;;;4989545;28;20026;-49
2022/08/08 07:37:56;;;;;;;3.90;2.45;;;31.70;48.70;;;;;;4993787;28;20019;-45
2022/08/08 07:40:26;;;;;;;;;;;32.00;48.60;;;;;;4992863;28;20502;-49
2022/08/08 07:42:53;;;;;;;5.78;2.60;;;32.40;46.90;;;;;;4992300;28;19910;-51
2022/08/08 07:45:20;;;;;;;3.63;2.13;;;32.50;46.50;;;;;;4992521;28;20022;-48
2022/08/08 07:47:46;;;;;;;3.47;1.90;;;32.50;45.60;;;;;;4993283;28;20041;-48
2022/08/08 07:50:12;;;;;;;2.92;1.80;;;32.70;44.70;;;;;;4991848;28;20490;-49
2022/08/08 07:52:43;;;;;;;3.95;2.00;;;33.10;42.40;;;;;;4992983;28;20014;-46
2022/08/08 07:55:25;;;;;;;4.57;1.83;;;33.40;41.30;;;;;;4992946;28;20076;-49
2022/08/08 07:57:51;;;;;;;5.57;2.10;;;33.40;43.00;;;;;;4993538;28;20014;-51
2022/08/08 08:00:17;;;;;;;4.72;1.75;;;33.90;41.10;;;;;;4990214;28;20049;-46
2022/08/08 08:02:46;;;;;;;4.32;1.80;;;34.10;40.70;;;;;;4981571;28;20524;-46
2022/08/08 08:05:24;;;;;;;2.97;1.35;;;34.30;41.20;;;;;;4989409;28;20073;-51
2022/08/08 08:08:19;;;;;;;4.38;1.52;;;34.70;39.50;;;;;;4988130;28;20027;-59
2022/08/08 08:10:49;;;;;;;5.60;1.70;;;34.50;39.00;;;;;;4987577;28;20101;-59
2022/08/08 08:13:25;;;;;;;5.07;1.80;;;34.20;40.60;;;;;;4992791;28;20485;-58
2022/08/08 08:16:02;;;;;;;3.25;1.20;;;34.60;40.70;;;;;;4985173;28;20096;-57
2022/08/08 08:18:42;;;;;;;3.40;1.60;;;34.80;38.40;;;;;;4982634;28;20022;-56
2022/08/08 08:21:09;;;;;;;3.63;1.75;;;34.90;38.40;;;;;;4990545;28;20041;-56
2022/08/08 08:23:35;;;;;;;3.28;1.65;;;35.00;38.10;;;;;;4991328;28;20385;-55
2022/08/08 08:26:01;;;;;;;3.15;1.58;;;35.00;37.20;;;;;;4991484;28;20034;-56
2022/08/08 08:28:27;;;;;;;5.95;1.88;;;35.10;37.20;;;;;;4990638;28;20110;-55
2022/08/08 08:30:54;;;;;;;3.80;1.77;;;35.30;38.70;;;;;;4991254;28;20034;-55
2022/08/08 08:33:20;;;;;;;6.00;2.13;;;35.30;37.20;;;;;;4992220;28;20449;-56
2022/08/08 08:35:47;;;;;;;4.20;1.90;;;35.30;37.00;;;;;;4991401;28;20026;-54
2022/08/08 08:38:13;;;;;;;6.63;1.90;;;35.80;37.50;;;;;;4992932;28;20049;-55
2022/08/08 08:40:39;;;;;;;6.20;2.20;;;35.80;35.80;;;;;;4993091;28;20401;-54
2022/08/08 08:43:06;;;;;;;4.18;1.88;;;35.90;35.30;;;;;;4991840;28;20029;-55
2022/08/08 08:45:35;;;;;;;5.43;2.15;;;35.80;35.80;;;;;;4992116;28;20477;-55
2022/08/08 08:48:01;;;;;;;2.88;1.90;;;36.20;35.40;;;;;;4984011;28;20042;-55
2022/08/08 08:50:27;;;;;;;3.40;1.80;;;35.90;34.40;;;;;;4990612;28;20042;-55
2022/08/08 08:52:56;;;;;;;5.30;2.08;;;35.80;35.30;;;;;;4986243;28;20118;-50
2022/08/08 08:55:24;;;;;;;3.17;1.77;;;35.60;35.20;;;;;;4981940;28;20117;-47
2022/08/08 08:57:52;;;;;;;3.80;1.60;;;36.20;35.60;;;;;;4992412;28;20026;-48
2022/08/08 09:00:18;;;;;;;3.63;1.70;;;36.50;34.60;;;;;;4991224;28;20121;-47
2022/08/08 09:02:45;;;;;;;3.65;1.90;;;36.70;34.10;;;;;;4992534;28;20109;-48
2022/08/08 09:05:13;;;;;;;3.75;1.95;;;37.00;35.70;;;;;;4992143;28;20121;-43
2022/08/08 09:07:40;;;;;;;3.85;1.90;;;36.80;33.40;;;;;;4992326;28;20035;-45
2022/08/08 09:10:07;;;;;;;4.43;1.95;;;36.50;33.70;;;;;;4992143;28;20125;-45
2022/08/08 09:12:34;;;;;;;3.63;1.75;;;36.90;34.20;;;;;;4989807;28;20514;-42
2022/08/08 09:15:01;;;;;;;3.15;1.70;;;36.60;34.60;;;;;;4990712;28;20085;-48
2022/08/08 09:17:26;;;;;;;4.50;1.83;;;36.80;34.10;;;;;;4990814;28;20037;-44
2022/08/08 09:19:56;;;;;;;4.10;1.60;;;36.70;33.70;;;;;;4989465;28;20031;-48
2022/08/08 09:22:22;;;;;;;4.95;2.10;;;36.90;35.20;;;;;;4984684;28;20040;-44
2022/08/08 09:24:49;;;;;;;3.80;1.98;;;36.40;33.60;;;;;;4986598;28;20030;-44
2022/08/08 09:27:17;;;;;;;5.25;1.77;;;36.50;34.50;;;;;;4991594;28;20398;-50
2022/08/08 09:29:48;;;;;;;4.00;1.70;;;36.30;35.50;;;;;;4985428;28;20049;-45
2022/08/08 09:32:24;;;;;;;3.63;1.90;;;36.30;33.30;;;;;;4990375;28;20031;-46
2022/08/08 09:34:54;;;;;;;5.95;2.17;;;36.20;35.90;;;;;;4984728;28;20054;-51
2022/08/08 09:37:26;;;;;;;4.20;1.85;;;36.40;34.20;;;;;;4989550;28;20470;-47
2022/08/08 09:39:58;;;;;;;8.15;1.88;;;36.10;33.30;;;;;;4988924;28;20046;-51
2022/08/08 09:42:35;;;;;;;3.95;1.90;;;36.20;34.90;;;;;;4989406;28;20022;-49
2022/08/08 09:45:10;;;;;;;5.68;2.00;;;36.20;33.60;;;;;;4977749;28;20053;-48
2022/08/08 09:47:39;;;;;;;3.80;1.95;;;36.00;34.50;;;;;;4989810;28;20054;-59
2022/08/08 09:50:12;;;;;;;3.03;1.90;;;35.70;35.40;;;;;;4988568;28;20129;-50
2022/08/08 09:52:41;;;;;;;4.63;2.10;;;35.00;35.10;;;;;;4984149;28;20018;-47
2022/08/08 09:55:07;;;;;;;5.70;1.98;;;35.10;36.80;;;;;;4989831;28;20684;-54
2022/08/08 09:57:38;;;;;;;3.78;1.90;;;35.30;35.00;;;;;;4985058;28;20030;-58
2022/08/08 10:00:09;;;;;;;4.72;2.72;;;35.10;36.10;;;;;;4976380;28;20105;-50
2022/08/08 10:02:37;;;;;;;5.07;1.98;;;35.00;36.70;;;;;;4987656;28;20018;-46
2022/08/08 10:05:04;;;;;;;;;;;34.70;37.10;;;;;;4990168;28;20484;-48
2022/08/08 10:07:29;;;;;;;4.95;2.10;;;35.00;36.00;;;;;;4978097;28;20379;-51
2022/08/08 10:09:55;;;;;;;9.70;2.35;;;35.10;36.60;;;;;;4983129;28;20066;-50
2022/08/08 10:12:34;;;;;;;4.85;1.90;;;35.30;37.30;;;;;;4981319;28;20725;-49
2022/08/08 10:15:02;;;;;;;3.35;1.88;;;35.40;37.20;;;;;;4976829;28;20058;-48
2022/08/08 10:17:31;;;;;;;5.55;1.90;;;35.50;36.50;;;;;;4981604;28;20505;-51
2022/08/08 10:19:58;;;;;;;4.00;2.28;;;35.80;35.00;;;;;;4988500;28;20445;-49
2022/08/08 10:22:26;;;;;;;3.67;2.13;;;35.30;34.60;;;;;;4984088;28;20026;-53
2022/08/08 10:25:06;;;;;;;4.87;1.80;;;35.00;37.60;;;;;;4987770;28;20023;-47
2022/08/08 10:27:41;;;;;;;4.68;2.10;;;35.20;36.40;;;;;;4985685;28;20032;-48
2022/08/08 10:30:08;;;;;;;3.75;1.70;;;35.10;35.70;;;;;;4990335;28;20034;-45
2022/08/08 10:32:41;;;;;;;4.30;1.92;;;35.30;36.00;;;;;;4988193;28;20022;-46
2022/08/08 10:35:15;;;;;;;3.63;1.88;;;35.50;35.60;;;;;;4986586;28;20049;-47
2022/08/08 10:38:02;;;;;;;4.80;2.17;;;35.40;35.60;;;;;;4989789;28;20092;-45
2022/08/08 10:40:30;;;;;;;4.70;1.95;;;34.90;36.30;;;;;;4984478;28;20030;-46
2022/08/08 10:43:05;;;;;;;4.18;1.80;;;34.70;37.50;;;;;;4990167;28;20478;-51
2022/08/08 10:45:45;;;;;;;3.05;1.92;;;34.80;37.00;;;;;;4981567;28;20026;-55
2022/08/08 10:48:12;;;;;;;8.82;2.45;;;35.10;35.40;;;;;;4995117;28;20109;-56
2022/08/08 10:50:38;;;;;;;3.53;1.83;;;35.50;36.40;;;;;;4994310;28;20058;-47
2022/08/08 10:53:11;;;;;;;5.20;1.92;;;35.80;35.80;;;;;;4994042;28;20473;-53
2022/08/08 10:55:38;;;;;;;4.05;1.80;;;36.00;33.60;;;;;;4993250;28;20030;-55
2022/08/08 10:58:07;;;;;;;3.27;1.60;;;36.20;34.00;;;;;;4987410;28;20179;-47
2022/08/08 11:00:33;;;;;;;;;;;36.60;34.80;;;;;;4992138;28;20102;-46
2022/08/08 11:03:10;;;;;;;4.63;2.25;;;36.80;34.00;;;;;;4988847;28;19902;-47
2022/08/08 11:06:02;;;;;;;2.72;1.63;;;36.70;33.90;;;;;;4985529;28;20477;-48
2022/08/08 11:08:28;;;;;;;3.92;1.80;;;36.30;34.80;;;;;;4987827;28;20375;-46
2022/08/08 11:11:08;;;;;;;5.18;1.45;;;36.30;34.20;;;;;;4988908;28;20029;-45
2022/08/08 11:13:42;;;;;;;3.92;1.67;;;35.90;34.80;;;;;;4990604;28;20022;-46
2022/08/08 11:16:12;;;;;;;3.67;1.33;;;35.90;34.70;;;;;;4994759;28;20026;-51
2022/08/08 11:18:38;;;;;;;5.18;1.85;;;35.70;35.30;;;;;;4990315;28;20401;-52
2022/08/08 11:21:06;;;;;;;4.38;1.60;;;35.10;34.20;;;;;;4994503;28;20110;-45
2022/08/08 11:23:35;;;;;;;3.95;1.70;;;35.30;36.10;;;;;;4994103;28;20084;-51
2022/08/08 11:26:04;;;;;;;1.90;1.30;;;35.10;35.30;;;;;;4989649;28;20096;-50
2022/08/08 11:28:34;;;;;;;2.85;1.48;;;35.00;36.90;;;;;;4994514;28;20103;-46
2022/08/08 11:31:02;;;;;;;1.63;1.00;;;35.20;35.30;;;;;;4989858;28;20105;-48
2022/08/08 11:33:30;;;;;;;2.28;1.40;;;35.00;35.00;;;;;;4985935;28;20050;-48
2022/08/08 11:35:56;;;;;;;4.47;1.60;;;34.80;35.80;;;;;;4992861;28;20058;-49
2022/08/08 11:38:25;;;;;;;2.47;1.33;;;34.90;36.90;;;;;;4993159;28;20652;-48
2022/08/08 11:40:53;;;;;;;3.63;1.60;;;34.70;36.80;;;;;;4993172;28;20069;-45
2022/08/08 11:43:20;;;;;;;3.03;1.50;;;35.10;36.50;;;;;;4992806;28;20113;-50
2022/08/08 11:45:48;;;;;;;3.60;1.47;;;35.20;36.20;;;;;;4984469;28;20037;-50
2022/08/08 11:48:15;;;;;;;2.22;1.58;;;35.20;35.00;;;;;;4992145;28;20643;-46
2022/08/08 11:50:45;;;;;;;3.55;1.60;;;35.00;35.90;;;;;;4992904;28;20105;-47
2022/08/08 11:53:11;;;;;;;2.83;1.50;;;34.60;33.90;;;;;;4992997;28;20034;-47
2022/08/08 11:55:50;;;;;;;5.13;1.70;;;34.40;36.30;;;;;;4992832;28;20054;-50
2022/08/08 11:58:16;;;;;;;3.20;1.40;;;34.30;36.10;;;;;;4992825;28;20023;-48
2022/08/08 12:00:55;;;;;;;4.55;1.60;;;33.90;35.90;;;;;;4992404;28;20477;-42
2022/08/08 12:03:22;;;;;;;4.40;1.50;;;33.80;36.00;;;;;;4992235;28;20116;-46
2022/08/08 12:05:50;;;;;;;4.33;1.57;;;33.70;37.00;;;;;;4989859;28;20026;-47
2022/08/08 12:08:28;;;;;;;3.08;1.75;;;33.70;37.90;;;;;;4992721;28;20264;-49
2022/08/08 12:10:58;;;;;;;;;;;33.80;38.10;;;;;;4992920;28;20042;-49
2022/08/08 12:13:24;;;;;;;3.60;1.73;;;34.20;37.50;;;;;;4992338;28;19929;-49
2022/08/08 12:15:50;;;;;;;3.28;1.70;;;34.40;37.30;;;;;;4992683;28;20377;-49
2022/08/08 12:18:16;;;;;;;4.07;1.98;;;34.60;37.30;;;;;;4991601;28;20497;-48
2022/08/08 12:20:42;;;;;;;2.58;1.50;;;34.70;36.80;;;;;;4992228;28;20102;-50
2022/08/08 12:23:08;;;;;;;3.83;1.90;;;34.70;37.00;;;;;;4992406;28;20053;-49
2022/08/08 12:25:34;;;;;;;4.10;1.73;;;34.40;36.50;;;;;;4992161;28;20061;-51
2022/08/08 12:28:15;;;;;;;7.28;1.83;;;33.50;36.70;;;;;;4992345;28;20490;-46
2022/08/08 12:30:45;;;;;;;3.13;1.75;;;33.60;37.60;;;;;;4992058;28;20038;-52
2022/08/08 12:33:17;;;;;;;4.13;1.90;;;33.20;38.20;;;;;;4944320;28;1177501;-47
2022/08/08 12:35:44;;;;;;;3.90;1.80;;;33.10;37.10;;;;;;4993005;28;20034;-44
2022/08/08 12:38:11;;;;;;;4.22;1.90;;;33.30;38.10;;;;;;4993026;28;20022;-45
2022/08/08 12:40:48;;;;;;;5.90;1.70;;;34.00;38.10;;;;;;4993294;28;20076;-49
2022/08/08 12:43:15;;;;;;;4.30;1.80;;;34.00;36.20;;;;;;4991251;28;20038;-44
2022/08/08 12:45:45;;;;;;;3.42;1.90;;;33.80;38.10;;;;;;4992616;28;20473;-47
2022/08/08 12:48:19;;;;;;;6.05;1.85;;;32.90;37.40;;;;;;4992495;28;20097;-47
2022/08/08 12:50:50;;;;;;;4.03;2.00;;;32.00;38.50;;;;;;4989471;28;20048;-51
2022/08/08 12:53:30;;;;;;;4.53;1.80;;;31.70;40.20;;;;;;4991607;28;20117;-52
2022/08/08 12:56:00;;;;;;;5.38;1.85;;;31.10;40.40;;;;;;4983437;28;20712;-50
2022/08/08 12:58:28;;;;;;;5.65;2.10;;;30.70;41.50;;;;;;4984846;28;20485;-47
2022/08/08 13:00:54;;;;;;;5.32;1.95;;;31.10;43.10;;;;;;4989918;28;20085;-51
2022/08/08 13:03:31;;;;;;;2.78;1.80;;;31.50;42.10;;;;;;4991022;28;20022;-44
2022/08/08 13:06:11;;;;;;;4.95;2.03;;;31.60;41.30;;;;;;4991866;28;20026;-50
2022/08/08 13:08:40;;;;;;;4.95;2.22;;;31.10;41.70;;;;;;4992275;28;20094;-49
2022/08/08 13:11:20;;;;;;;4.82;2.08;;;30.40;42.20;;;;;;4992230;28;20104;-50
2022/08/08 13:14:02;;;;;;;3.15;1.90;;;30.20;43.90;;;;;;4989897;28;20112;-51
2022/08/08 13:16:32;;;;;;;4.25;2.08;;;29.80;44.00;;;;;;4990478;28;20278;-55
2022/08/08 13:18:59;;;;;;;5.35;2.15;;;29.50;45.20;;;;;;4988557;28;20022;-49
2022/08/08 13:21:25;;;;;;;4.65;1.90;;;29.30;46.60;;;;;;4988862;28;20046;-48
2022/08/08 13:23:51;;;;;;;3.65;2.00;;;29.30;46.80;;;;;;4989253;28;20033;-48